Time;durP1;ratioP1;P1;durP2;ratioP2;P2;SDS_P1;SDS_P2;PMS_P1;PMS_P2;Temp;Humidity;BMP_temperature;BMP_pressure;BME280_temperature;BME280_humidity;BME280_pressure;Samples;Min_cycle;Max_cycle;Signal;HPM_P1;HPM_P2
2022/02/14 00:01:51;;;;;;;;;5.33;5.00;;;;;13.77;57.67;99738.09;5099507;27;45318;-77
2022/02/14 00:04:16;;;;;;;;;4.67;3.33;;;;;13.80;57.54;99734.53;5087704;27;56150;-77
2022/02/14 00:06:42;;;;;;;;;7.33;5.00;;;;;13.80;57.64;99727.44;5079309;27;47289;-77
2022/02/14 00:09:07;;;;;;;;;4.00;4.00;;;;;13.79;57.75;99722.16;5085348;27;59001;-77
2022/02/14 00:11:32;;;;;;;;;6.67;4.00;;;;;13.78;57.64;99715.97;5093821;27;57335;-77
2022/02/14 00:13:58;;;;;;;;;6.00;2.00;;;;;13.77;57.97;99711.56;5087501;27;45591;-77
2022/02/14 00:16:23;;;;;;;;;5.00;4.00;;;;;13.76;57.96;99709.84;5085806;27;60306;-76
2022/02/14 00:18:49;;;;;;;;;6.00;4.00;;;;;13.75;58.19;99715.19;5078657;27;59480;-78
2022/02/14 00:21:14;;;;;;;;;5.00;4.00;;;;;13.73;57.68;99720.50;5081521;27;53144;-77
2022/02/14 00:23:39;;;;;;;;;4.67;4.00;;;;;13.73;57.83;99711.66;5083745;27;45452;-77
2022/02/14 00:26:05;;;;;;;;;5.67;3.67;;;;;13.71;58.06;99713.50;5082636;27;47584;-77
2022/02/14 00:28:30;;;;;;;;;7.00;3.00;;;;;13.71;57.81;99705.53;5078441;27;55274;-77
2022/02/14 00:30:55;;;;;;;;;2.33;2.33;;;;;13.69;57.80;99707.31;5079055;27;45256;-76
2022/02/14 00:33:21;;;;;;;;;3.33;3.33;;;;;13.69;57.70;99702.00;5078672;27;52259;-77
2022/02/14 00:35:49;;;;;;;;;3.33;3.00;;;;;13.69;57.82;99712.63;5080464;27;62240;-77
2022/02/14 00:38:15;;;;;;;;;4.00;4.00;;;;;13.67;58.02;99710.00;5093683;27;45527;-78
2022/02/14 00:40:40;;;;;;;;;4.00;3.00;;;;;13.69;57.67;99692.31;5097465;27;45373;-76
2022/02/14 00:43:06;;;;;;;;;5.00;3.33;;;;;13.69;58.07;99700.25;5083632;27;45514;-76
2022/02/14 00:45:31;;;;;;;;;4.33;3.00;;;;;13.69;57.65;99696.72;5078622;27;47292;-77
2022/02/14 00:47:57;;;;;;;;;4.00;4.00;;;;;13.70;57.96;99699.34;5078711;27;45346;-77
2022/02/14 00:50:22;;;;;;;;;4.00;4.00;;;;;13.70;57.82;99671.97;5094483;27;45656;-77
2022/02/14 00:52:47;;;;;;;;;4.00;4.00;;;;;13.73;57.85;99687.78;5078900;27;45406;-77
2022/02/14 00:55:14;;;;;;;;;3.33;3.33;;;;;13.69;57.96;99683.44;5078645;27;46442;-76
2022/02/14 00:57:40;;;;;;;;;5.00;5.00;;;;;13.73;57.61;99683.34;5077563;27;45514;-77
2022/02/14 01:00:07;;;;;;;;;4.00;3.00;;;;;13.74;57.53;99692.19;5081122;27;45528;-77
2022/02/14 01:02:32;;;;;;;;;5.00;4.00;;;;;13.73;57.74;99696.63;5093836;27;45542;-77
2022/02/14 01:04:57;;;;;;;;;5.67;4.33;;;;;13.75;57.72;99676.25;5085837;27;59393;-77
2022/02/14 01:07:23;;;;;;;;;5.67;4.67;;;;;13.75;58.06;99681.56;5085674;27;45245;-77
2022/02/14 01:09:49;;;;;;;;;4.67;4.00;;;;;13.76;57.97;99675.34;5086036;27;45509;-77
2022/02/14 01:12:17;;;;;;;;;4.00;3.00;;;;;13.75;57.76;99680.69;5078890;27;45546;-77
2022/02/14 01:14:43;;;;;;;;;2.00;2.00;;;;;13.78;58.10;99677.97;5077005;27;47691;-77
2022/02/14 01:17:08;;;;;;;;;5.00;4.00;;;;;13.78;57.77;99665.56;5077964;27;61449;-77
2022/02/14 01:19:34;;;;;;;;;4.67;4.00;;;;;13.75;58.47;99680.69;5078560;27;45856;-76
2022/02/14 01:21:59;;;;;;;;;6.33;3.67;;;;;13.78;57.82;99675.31;5093134;27;45220;-78
2022/02/14 01:24:25;;;;;;;;;5.00;4.00;;;;;13.76;58.35;99667.38;5091893;27;47415;-77
2022/02/14 01:26:50;;;;;;;;;6.00;5.00;;;;;13.77;58.06;99668.25;5077486;27;60799;-78
2022/02/14 01:29:22;;;;;;;;;4.00;3.00;;;;;13.78;58.39;99656.72;5078179;27;45432;-77
2022/02/14 01:31:48;;;;;;;;;4.00;4.00;;;;;13.77;58.56;99661.16;5078620;27;45812;-77
2022/02/14 01:34:13;;;;;;;;;5.67;4.33;;;;;13.77;58.42;99658.53;5096893;27;46690;-77
2022/02/14 01:36:39;;;;;;;;;6.33;4.67;;;;;13.77;58.68;99647.03;5091463;27;45281;-77
2022/02/14 01:39:04;;;;;;;;;5.67;4.00;;;;;13.76;58.66;99648.81;5078118;27;45525;-78
2022/02/14 01:41:29;;;;;;;;;8.00;5.67;;;;;13.75;59.14;99633.81;5077637;27;55137;-77
2022/02/14 01:43:55;;;;;;;;;4.00;4.00;;;;;13.73;58.74;99648.00;5077358;27;60802;-78
2022/02/14 01:46:20;;;;;;;;;5.00;3.67;;;;;13.65;59.01;99618.13;5077113;27;60307;-76
2022/02/14 01:48:49;;;;;;;;;7.00;5.33;;;;;13.70;59.03;99645.44;5086239;27;58083;-76
2022/02/14 01:51:17;;;;;;;;;4.00;4.00;;;;;13.67;59.12;99637.53;5096074;27;45381;-76
2022/02/14 01:53:42;;;;;;;;;7.00;4.00;;;;;13.66;59.69;99626.03;5077600;27;46461;-77
2022/02/14 01:56:09;;;;;;;;;4.33;4.33;;;;;13.66;59.60;99631.34;5077552;27;45348;-78
2022/02/14 01:58:34;;;;;;;;;3.00;2.00;;;;;13.66;59.61;99646.38;5076553;28;45250;-77
2022/02/14 02:01:03;;;;;;;;;3.00;3.00;;;;;13.63;60.31;99642.91;5082088;27;54535;-77
2022/02/14 02:03:28;;;;;;;;;5.00;3.67;;;;;13.66;60.25;99643.72;5095851;27;47441;-77
2022/02/14 02:05:57;;;;;;;;;5.67;5.00;;;;;13.67;59.90;99638.38;5088403;27;45353;-77
2022/02/14 02:08:22;;;;;;;;;6.67;5.67;;;;;13.69;60.40;99625.09;5078239;27;45539;-77
2022/02/14 02:10:47;;;;;;;;;7.00;4.67;;;;;13.69;60.33;99617.13;5097015;27;57006;-77
2022/02/14 02:13:15;;;;;;;;;5.33;4.00;;;;;13.71;59.85;99618.00;5077296;27;63245;-77
2022/02/14 02:15:41;;;;;;;;;5.00;3.00;;;;;13.73;59.72;99608.19;5076057;27;45362;-77
2022/02/14 02:18:06;;;;;;;;;5.33;3.67;;;;;13.73;60.12;99616.16;5077388;27;45350;-77
2022/02/14 02:20:32;;;;;;;;;5.00;3.00;;;;;13.73;60.13;99603.78;5079067;27;45292;-77
2022/02/14 02:22:57;;;;;;;;;6.67;5.00;;;;;13.75;59.80;99609.94;5077790;27;47366;-78
2022/02/14 02:25:23;;;;;;;;;4.00;3.00;;;;;13.75;60.50;99627.63;5078649;27;61021;-77
2022/02/14 02:27:50;;;;;;;;;4.00;3.00;;;;;13.76;60.32;99629.38;5091351;27;45217;-77
2022/02/14 02:30:22;;;;;;;;;4.67;4.67;;;;;13.74;60.06;99640.03;5085971;27;45662;-77
2022/02/14 02:32:48;;;;;;;;;4.67;4.00;;;;;13.65;60.46;99615.47;5083249;27;47614;-77
2022/02/14 02:35:13;;;;;;;;;4.00;4.00;;;;;13.73;60.37;99640.03;5077287;27;45290;-77
2022/02/14 02:37:39;;;;;;;;;3.67;2.00;;;;;13.69;60.65;99614.47;5087957;27;58406;-78
2022/02/14 02:42:56;;;;;;;;;3.33;3.33;;;;;13.70;60.90;99609.16;5060381;28;45897;-77
2022/02/14 02:45:21;;;;;;;;;3.00;3.00;;;;;13.70;61.01;99635.69;5057220;28;45249;-77
2022/02/14 02:47:47;;;;;;;;;5.33;4.00;;;;;13.67;61.17;99595.06;5072132;28;49459;-77
2022/02/14 02:50:12;;;;;;;;;6.00;4.33;;;;;13.65;61.10;99603.06;5057236;28;55103;-77
2022/02/14 02:52:38;;;;;;;;;4.33;4.33;;;;;13.68;61.02;99594.16;5073442;28;45597;-78
2022/02/14 02:55:03;;;;;;;;;5.33;5.33;;;;;13.67;61.76;99603.03;5075944;28;52176;-77
2022/02/14 02:57:30;;;;;;;;;4.33;3.33;;;;;13.65;61.37;99592.47;5075628;27;45314;-77
2022/02/14 02:59:56;;;;;;;;;5.00;4.00;;;;;13.65;62.31;99599.56;5058407;28;45298;-77
2022/02/14 03:02:21;;;;;;;;;6.00;4.00;;;;;13.64;62.20;99614.59;5068063;28;46388;-78
2022/02/14 03:04:47;;;;;;;;;5.00;4.00;;;;;13.61;62.05;99594.31;5060130;28;45331;-76
2022/02/14 03:07:12;;;;;;;;;5.00;5.00;;;;;13.59;62.35;99589.94;5060383;28;45298;-77
2022/02/14 03:09:38;;;;;;;;;4.67;4.67;;;;;13.56;63.38;99582.91;5077621;27;52262;-77
2022/02/14 03:12:03;;;;;;;;;6.00;4.00;;;;;13.57;63.60;99591.75;5059902;28;46330;-78
2022/02/14 03:14:28;;;;;;;;;4.67;3.00;;;;;13.57;62.74;99602.34;5059442;28;45358;-76
2022/02/14 03:16:54;;;;;;;;;5.67;4.00;;;;;13.57;63.23;99599.69;5059792;28;47143;-76
2022/02/14 03:19:21;;;;;;;;;4.00;4.00;;;;;13.53;63.90;99606.88;5074536;28;45507;-77
2022/02/14 03:21:48;;;;;;;;;5.33;3.67;;;;;13.53;63.78;99605.97;5069799;27;46698;-77
2022/02/14 03:24:14;;;;;;;;;3.67;3.00;;;;;13.48;64.23;99614.03;5060073;28;45512;-76
2022/02/14 03:26:39;;;;;;;;;6.00;5.00;;;;;13.41;68.75;99627.44;5059679;28;49247;-77
2022/02/14 03:29:04;;;;;;;;;4.00;4.00;;;;;13.13;95.41;99637.66;5059086;28;53746;-78
2022/02/14 03:31:30;;;;;;;;;5.00;5.00;;;;;12.88;86.45;99631.94;5059740;28;47324;-77
2022/02/14 03:33:55;;;;;;;;;7.00;3.00;;;;;12.74;72.72;99619.81;5059434;28;46305;-77
2022/02/14 03:36:21;;;;;;;;;6.00;4.00;;;;;12.63;71.80;99636.78;5062441;28;45271;-76
2022/02/14 03:38:46;;;;;;;;;2.00;2.00;;;;;12.57;72.65;99646.59;5071724;27;45457;-77
2022/02/14 03:41:12;;;;;;;;;2.67;2.67;;;;;12.51;73.15;99648.44;5059886;28;46369;-77
2022/02/14 03:43:37;;;;;;;;;2.00;2.00;;;;;12.46;72.97;99651.16;5065656;28;60736;-76
2022/02/14 03:46:03;;;;;;;;;3.00;3.00;;;;;12.42;73.21;99649.47;5080109;27;57181;-77
2022/02/14 03:48:28;;;;;;;;;2.33;2.00;;;;;12.38;74.39;99652.19;5059544;28;45302;-77
2022/02/14 03:50:53;;;;;;;;;2.00;2.00;;;;;12.39;72.98;99669.81;5067391;28;55620;-77
2022/02/14 03:53:19;;;;;;;;;3.00;1.67;;;;;12.37;73.84;99668.97;5058817;28;55876;-76
2022/02/14 03:55:45;;;;;;;;;3.00;2.00;;;;;12.39;72.77;99689.22;5059276;28;45357;-77
2022/02/14 03:58:10;;;;;;;;;6.00;2.00;;;;;12.40;71.00;99720.06;5058873;28;54649;-76
2022/02/14 04:00:35;;;;;;;;;2.33;1.00;;;;;12.35;70.68;99727.19;5069666;28;60958;-77
2022/02/14 04:03:01;;;;;;;;;0.00;0.00;;;;;12.36;70.07;99736.94;5073969;28;45239;-77
2022/02/14 04:05:26;;;;;;;;;0.00;0.00;;;;;12.25;68.79;99754.69;5086102;27;49020;-76
2022/02/14 04:07:57;;;;;;;;;0.00;0.00;;;;;12.19;68.59;99771.53;5072453;27;55883;-77
2022/02/14 04:10:22;;;;;;;;;0.00;0.00;;;;;12.09;69.03;99761.97;5066808;28;45728;-77
2022/02/14 04:12:48;;;;;;;;;0.00;0.00;;;;;12.04;68.48;99762.03;5065419;28;45540;-77
2022/02/14 04:15:15;;;;;;;;;0.00;0.00;;;;;12.00;68.18;99772.66;5058568;28;54824;-77
2022/02/14 04:17:41;;;;;;;;;0.00;0.00;;;;;11.96;68.01;99768.28;5077375;28;45366;-77
2022/02/14 04:20:07;;;;;;;;;0.00;0.00;;;;;11.92;67.94;99778.03;5060339;28;47440;-77
2022/02/14 04:22:37;;;;;;;;;0.00;0.00;;;;;11.88;67.85;99778.06;5066773;28;45230;-77
2022/02/14 04:25:03;;;;;;;;;0.00;0.00;;;;;11.84;67.77;99787.84;5059260;28;45291;-77
2022/02/14 04:27:29;;;;;;;;;0.00;0.00;;;;;11.84;67.43;99787.84;5058708;28;45576;-78
2022/02/14 04:29:54;;;;;;;;;0.00;0.00;;;;;11.83;67.40;99790.50;5058652;28;46554;-78
2022/02/14 04:32:20;;;;;;;;;0.00;0.00;;;;;11.81;67.33;99793.09;5064870;28;45183;-77
2022/02/14 04:34:45;;;;;;;;;0.00;0.00;;;;;11.82;67.18;99802.81;5076821;27;45279;-78
2022/02/14 04:37:13;;;;;;;;;0.00;0.00;;;;;11.80;67.09;99805.47;5078317;28;54378;-77
2022/02/14 04:39:38;;;;;;;;;1.00;0.00;;;;;11.79;67.10;99802.84;5078061;27;47242;-77
2022/02/14 04:42:04;;;;;;;;;1.00;0.00;;;;;11.80;66.87;99809.88;5071864;27;60733;-76
2022/02/14 04:44:29;;;;;;;;;0.00;0.00;;;;;11.81;66.81;99814.28;5070317;28;45334;-77
2022/02/14 04:46:55;;;;;;;;;0.00;0.00;;;;;11.78;66.51;99816.97;5061795;28;52955;-77
2022/02/14 04:49:20;;;;;;;;;0.00;0.00;;;;;11.75;66.40;99827.56;5059347;28;63415;-77
2022/02/14 04:51:45;;;;;;;;;0.00;0.00;;;;;11.73;66.37;99832.88;5075344;27;61978;-78
2022/02/14 04:54:11;;;;;;;;;0.00;0.00;;;;;11.73;66.52;99837.28;5058366;28;52910;-77
2022/02/14 04:56:36;;;;;;;;;0.00;0.00;;;;;11.72;66.91;99835.53;5073596;27;54477;-78
2022/02/14 04:59:02;;;;;;;;;0.00;0.00;;;;;11.70;66.30;99837.31;5061976;28;63746;-78
2022/02/14 05:01:27;;;;;;;;;0.00;0.00;;;;;11.67;66.28;99834.72;5072192;27;45454;-78
2022/02/14 05:03:52;;;;;;;;;0.00;0.00;;;;;11.65;65.96;99833.81;5058533;28;45638;-78
2022/02/14 05:06:18;;;;;;;;;1.00;0.00;;;;;11.59;65.70;99839.19;5058467;28;45606;-76
2022/02/14 05:08:43;;;;;;;;;0.00;0.00;;;;;11.53;66.04;99851.56;5061580;28;45278;-78
2022/02/14 05:11:09;;;;;;;;;0.00;0.00;;;;;11.51;66.01;99849.84;5066976;27;45242;-77
2022/02/14 05:13:37;;;;;;;;;0.00;0.00;;;;;11.48;65.99;99852.50;5058336;28;45510;-77
2022/02/14 05:16:03;;;;;;;;;0.00;0.00;;;;;11.46;66.01;99855.16;5058335;28;45149;-76
2022/02/14 05:18:30;;;;;;;;;0.00;0.00;;;;;11.43;65.89;99855.16;5058040;28;47581;-77
2022/02/14 05:20:56;;;;;;;;;0.00;0.00;;;;;11.39;65.88;99868.41;5065591;28;60901;-76
2022/02/14 05:23:21;;;;;;;;;0.00;0.00;;;;;11.35;65.83;99867.59;5072959;27;57751;-77
2022/02/14 05:25:46;;;;;;;;;0.00;0.00;;;;;11.31;65.84;99876.41;5058939;28;53492;-77
2022/02/14 05:28:12;;;;;;;;;0.00;0.00;;;;;11.28;65.83;99871.13;5065213;28;63366;-77
2022/02/14 05:30:37;;;;;;;;;1.00;0.00;;;;;11.26;65.93;99880.84;5076755;28;56896;-77
2022/02/14 05:33:03;;;;;;;;;0.00;0.00;;;;;11.27;65.81;99890.53;5069642;28;45216;-76
2022/02/14 05:35:29;;;;;;;;;1.00;0.00;;;;;11.24;65.81;99894.09;5057990;28;45211;-77
2022/02/14 05:37:55;;;;;;;;;0.00;0.00;;;;;11.20;65.80;99896.75;5057647;28;46719;-78
2022/02/14 05:40:20;;;;;;;;;0.00;0.00;;;;;11.13;65.83;99892.38;5057517;28;45535;-77
2022/02/14 05:42:46;;;;;;;;;0.00;0.00;;;;;11.13;65.84;99909.13;5060053;28;45417;-77
2022/02/14 05:45:11;;;;;;;;;1.00;0.00;;;;;11.10;65.79;99916.19;5065752;28;45564;-77
2022/02/14 05:47:36;;;;;;;;;0.00;0.00;;;;;11.05;66.01;99925.91;5058590;28;55616;-77
2022/02/14 05:50:03;;;;;;;;;1.00;0.00;;;;;11.02;66.30;99924.13;5066518;28;60065;-77
2022/02/14 05:52:28;;;;;;;;;1.67;0.00;;;;;10.98;66.05;99939.16;5060538;27;45170;-77
2022/02/14 05:54:53;;;;;;;;;0.00;0.00;;;;;10.91;65.99;99934.75;5064347;28;45379;-77
2022/02/14 05:57:20;;;;;;;;;0.00;0.00;;;;;10.91;66.27;99952.38;5064846;28;64997;-76
2022/02/14 05:59:48;;;;;;;;;3.00;0.00;;;;;10.89;66.40;99952.38;5075884;28;45317;-77
2022/02/14 06:02:13;;;;;;;;;0.00;0.00;;;;;10.88;66.52;99958.56;5064746;27;45257;-77
2022/02/14 06:04:39;;;;;;;;;0.00;0.00;;;;;10.90;66.29;99963.81;5066963;27;45272;-76
2022/02/14 06:07:04;;;;;;;;;0.00;0.00;;;;;10.93;66.33;99958.53;5057509;28;45542;-77
2022/02/14 06:09:30;;;;;;;;;0.00;0.00;;;;;10.92;66.27;99962.03;5058079;28;55322;-76
2022/02/14 06:11:57;;;;;;;;;0.00;0.00;;;;;10.89;66.24;99957.66;5064883;27;56344;-77
2022/02/14 06:14:22;;;;;;;;;1.00;0.00;;;;;10.90;66.10;99967.34;5057605;28;45173;-77
2022/02/14 06:16:48;;;;;;;;;1.00;1.00;;;;;10.95;66.24;99972.63;5051482;28;46346;-76
2022/02/14 06:19:13;;;;;;;;;0.00;0.00;;;;;10.98;65.97;99984.06;5076574;28;45393;-77
2022/02/14 06:21:38;;;;;;;;;1.33;0.00;;;;;10.97;66.23;99984.94;5065980;27;56506;-77
2022/02/14 06:24:04;;;;;;;;;0.00;0.00;;;;;10.89;66.04;99988.50;5065840;27;51545;-77
2022/02/14 06:26:32;;;;;;;;;1.00;0.00;;;;;10.87;65.97;99992.91;5056718;28;45464;-77
2022/02/14 06:28:58;;;;;;;;;2.00;0.00;;;;;10.81;66.25;99996.41;5056401;28;45397;-77
2022/02/14 06:31:26;;;;;;;;;0.00;0.00;;;;;10.81;66.38;100009.63;5056677;28;45358;-77
2022/02/14 06:33:52;;;;;;;;;0.67;0.00;;;;;10.77;65.96;100013.19;5056638;28;45342;-77
2022/02/14 06:36:18;;;;;;;;;0.67;0.00;;;;;10.73;66.14;100000.88;5056820;28;46720;-80
2022/02/14 06:38:43;;;;;;;;;1.00;0.00;;;;;10.75;65.84;100014.94;5055341;28;45473;-78
2022/02/14 06:41:09;;;;;;;;;1.00;0.00;;;;;10.73;65.98;100027.28;5056716;28;45785;-76
2022/02/14 06:43:34;;;;;;;;;1.00;0.00;;;;;10.68;66.41;100013.19;5063511;28;45599;-78
2022/02/14 06:46:00;;;;;;;;;2.00;0.00;;;;;10.68;66.06;100013.19;5066044;28;51588;-76
2022/02/14 06:48:25;;;;;;;;;0.33;0.00;;;;;10.67;65.94;100016.72;5071548;27;45535;-79
2022/02/14 06:50:50;;;;;;;;;0.00;0.00;;;;;10.65;65.85;100027.31;5067678;28;45652;-78
2022/02/14 06:53:16;;;;;;;;;0.00;0.00;;;;;10.67;66.05;100027.28;5084189;27;45624;-77
2022/02/14 06:55:41;;;;;;;;;0.00;0.00;;;;;10.66;66.04;100026.41;5060716;27;47422;-78
2022/02/14 06:58:07;;;;;;;;;0.00;0.00;;;;;10.67;66.02;100037.84;5063287;28;46685;-81
2022/02/14 07:00:32;;;;;;;;;3.00;0.00;;;;;10.65;65.68;100034.31;5064435;27;45453;-78
2022/02/14 07:02:59;;;;;;;;;3.00;0.00;;;;;10.65;65.70;100042.22;5069828;27;45587;-78
2022/02/14 07:05:25;;;;;;;;;1.33;0.00;;;;;10.64;65.89;100046.63;5060455;28;59789;-77
2022/02/14 07:07:50;;;;;;;;;1.67;0.00;;;;;10.62;65.83;100052.81;5062979;28;46998;-79
2022/02/14 07:10:15;;;;;;;;;1.00;0.00;;;;;10.64;65.79;100057.19;5047076;28;54613;-76
2022/02/14 07:12:42;;;;;;;;;0.00;0.00;;;;;10.65;66.00;100060.72;5080202;27;45379;-76
2022/02/14 07:15:09;;;;;;;;;0.00;0.00;;;;;10.65;65.89;100061.63;5067343;27;46108;-77
2022/02/14 07:17:35;;;;;;;;;3.33;1.00;;;;;10.64;65.53;100061.59;5064769;28;45324;-76
2022/02/14 07:20:00;;;;;;;;;0.67;0.00;;;;;10.63;65.67;100058.09;5055523;28;45485;-77
2022/02/14 07:22:26;;;;;;;;;0.67;0.00;;;;;10.66;65.80;100059.84;5069243;28;45522;-77
2022/02/14 07:24:51;;;;;;;;;2.00;0.00;;;;;10.64;65.79;100073.03;5067392;27;46771;-86
2022/02/14 07:27:16;;;;;;;;;3.33;1.00;;;;;10.56;66.40;100069.53;5034808;27;45542;-81
2022/02/14 07:29:42;;;;;;;;;0.67;0.00;;;;;10.47;66.00;100078.34;5056742;27;45395;-81
2022/02/14 07:32:08;;;;;;;;;1.00;0.33;;;;;10.41;66.24;100086.25;5059211;27;45623;-84
2022/02/14 07:34:33;;;;;;;;;0.00;0.00;;;;;10.33;66.33;100089.78;5062184;27;46250;-82
2022/02/14 07:37:02;;;;;;;;;3.00;0.00;;;;;10.22;66.24;100077.41;5059950;27;45792;-81
2022/02/14 07:39:30;;;;;;;;;2.00;1.00;;;;;10.27;75.00;100093.28;5053917;28;45502;-82
2022/02/14 07:41:56;;;;;;;;;3.00;0.00;;;;;10.20;73.04;100096.78;5062915;27;45559;-80
2022/02/14 07:44:21;;;;;;;;;1.33;0.00;;;;;10.03;70.72;100099.41;5056426;28;46621;-79
2022/02/14 07:46:51;;;;;;;;;1.00;0.00;;;;;9.92;70.17;100111.69;5062578;28;62271;-81
2022/02/14 07:49:19;;;;;;;;;0.00;0.00;;;;;9.85;69.24;100121.31;5061138;28;45638;-79
2022/02/14 07:51:44;;;;;;;;;0.67;0.67;;;;;9.79;69.45;100115.16;5060661;28;45595;-76
2022/02/14 07:54:10;;;;;;;;;1.33;0.00;;;;;9.75;69.62;100113.41;5063609;27;55434;-79
2022/02/14 07:56:36;;;;;;;;;2.00;0.00;;;;;9.72;69.56;100116.91;5067164;28;61708;-83
2022/02/14 07:59:03;;;;;;;;;0.00;0.00;;;;;9.71;69.35;100120.44;5059801;28;45441;-81
2022/02/14 08:01:29;;;;;;;;;3.33;1.33;;;;;9.68;69.40;100125.69;5062672;28;45679;-83
2022/02/14 08:03:54;;;;;;;;;2.00;1.00;;;;;9.69;69.26;100123.06;5065863;27;45728;-77
2022/02/14 08:06:20;;;;;;;;;1.67;0.00;;;;;9.79;69.09;100134.50;5068544;27;57751;-77
2022/02/14 08:08:45;;;;;;;;;0.67;0.67;;;;;9.87;68.71;100130.16;5064742;27;45871;-76
2022/02/14 08:11:10;;;;;;;;;1.33;1.33;;;;;9.96;68.22;100137.22;5066460;27;45552;-76
2022/02/14 08:13:36;;;;;;;;;1.00;0.00;;;;;10.00;67.59;100133.69;5067940;28;46510;-77
2022/02/14 08:16:02;;;;;;;;;0.00;0.00;;;;;10.06;67.51;100140.72;5059431;27;45407;-77
2022/02/14 08:18:30;;;;;;;;;1.00;0.00;;;;;10.13;67.35;100139.88;5062131;28;45612;-75
2022/02/14 08:21:01;;;;;;;;;4.00;1.00;;;;;10.16;67.18;100150.41;5065069;27;45564;-76
2022/02/14 08:23:32;;;;;;;;;2.00;0.67;;;;;10.23;66.99;100158.41;5060630;28;48122;-75
2022/02/14 08:25:58;;;;;;;;;2.67;0.00;;;;;10.28;66.87;100166.31;5062073;28;46105;-73
2022/02/14 09:04:08;;;;;;;;;7.00;1.00;;;;;11.15;64.39;100205.91;5035210;28;46423;-76
2022/02/14 09:06:34;;;;;;;;;2.00;0.00;;;;;11.23;64.18;100195.31;5060267;28;45615;-75
2022/02/14 09:09:00;;;;;;;;;0.00;0.00;;;;;11.34;64.12;100192.66;5061601;28;56368;-76
2022/02/14 09:11:28;;;;;;;;;1.67;0.00;;;;;11.46;63.88;100195.28;5059404;28;45514;-76
2022/02/14 09:13:53;;;;;;;;;2.00;1.00;;;;;11.60;63.83;100193.44;5056221;28;45689;-75
2022/02/14 09:16:19;;;;;;;;;2.33;1.00;;;;;11.75;64.08;100185.47;5063356;28;47109;-76
2022/02/14 09:18:44;;;;;;;;;4.33;1.00;;;;;11.93;63.65;100188.94;5056541;28;45389;-75
2022/02/14 09:21:10;;;;;;;;;3.67;1.33;;;;;12.04;62.81;100192.44;5054498;28;56264;-75
2022/02/14 09:23:35;;;;;;;;;1.00;1.00;;;;;12.12;62.97;100187.09;5060198;28;65237;-75
2022/02/14 09:26:01;;;;;;;;;1.67;1.00;;;;;12.11;62.71;100191.50;5059644;28;61556;-76
2022/02/14 09:28:26;;;;;;;;;0.00;0.00;;;;;12.04;62.64;100182.72;5055649;28;45603;-76
2022/02/14 09:30:52;;;;;;;;;1.33;0.67;;;;;12.04;62.68;100185.38;5054938;28;45431;-74
2022/02/14 09:33:17;;;;;;;;;1.67;0.00;;;;;12.07;62.29;100189.75;5056304;28;45495;-75
2022/02/14 09:35:43;;;;;;;;;1.67;1.00;;;;;12.08;62.42;100178.28;5059027;28;62461;-76
2022/02/14 09:38:08;;;;;;;;;1.67;1.00;;;;;12.06;62.02;100178.31;5060679;27;45770;-75
2022/02/14 09:40:34;;;;;;;;;1.00;1.00;;;;;12.11;62.35;100186.22;5060528;28;45766;-75
2022/02/14 09:43:00;;;;;;;;;0.00;0.00;;;;;12.10;62.32;100176.53;5058824;28;45501;-77
2022/02/14 09:45:28;;;;;;;;;2.33;1.00;;;;;12.10;62.28;100176.53;5066420;28;45520;-75
2022/02/14 09:48:02;;;;;;;;;1.33;1.00;;;;;12.03;61.09;100190.66;5063714;28;45576;-76
2022/02/14 09:50:28;;;;;;;;;5.00;2.00;;;;;12.10;61.86;100180.94;5059094;27;45255;-76
2022/02/14 09:52:53;;;;;;;;;0.00;0.00;;;;;12.10;62.05;100187.13;5059494;28;47429;-76
2022/02/14 09:55:19;;;;;;;;;1.00;1.00;;;;;12.13;61.75;100191.50;5060971;28;45477;-75
2022/02/14 09:57:47;;;;;;;;;1.00;1.00;;;;;12.14;61.77;100195.88;5054619;28;45597;-75
2022/02/14 10:00:13;;;;;;;;;3.67;1.00;;;;;12.19;61.67;100202.03;5050248;28;45412;-77
2022/02/14 10:02:38;;;;;;;;;5.00;1.00;;;;;12.22;61.85;100196.75;5057498;28;46504;-75
2022/02/14 10:05:21;;;;;;;;;1.67;1.67;;;;;12.41;61.32;100218.66;5057543;28;45371;-75
2022/02/14 10:07:50;;;;;;;;;0.00;0.00;;;;;12.49;61.27;100220.38;5055744;28;45440;-75
2022/02/14 10:10:24;;;;;;;;;2.33;0.67;;;;;12.53;60.77;100219.47;5056556;28;45481;-76
2022/02/14 10:12:55;;;;;;;;;2.00;1.00;;;;;12.54;60.67;100223.00;5056856;27;47459;-77
2022/02/14 10:15:21;;;;;;;;;1.33;0.67;;;;;12.58;60.84;100233.56;5058863;28;45224;-76
2022/02/14 10:17:48;;;;;;;;;0.00;0.00;;;;;12.64;60.31;100237.06;5064889;28;45527;-75
2022/02/14 10:20:17;;;;;;;;;1.67;0.00;;;;;12.67;59.97;100227.31;5076930;27;45539;-76
2022/02/14 10:23:09;;;;;;;;;1.00;1.00;;;;;12.77;59.84;100231.66;5055714;28;47383;-75
2022/02/14 10:25:42;;;;;;;;;2.00;2.00;;;;;12.77;59.46;100244.91;5050164;28;59422;-76
2022/02/14 10:28:20;;;;;;;;;5.00;1.67;;;;;12.73;59.23;100232.59;5054435;28;45553;-76
2022/02/14 10:31:05;;;;;;;;;2.33;1.00;;;;;12.69;59.52;100232.63;5056088;28;45545;-76
2022/02/14 10:34:06;;;;;;;;;2.00;1.00;;;;;12.76;58.88;100236.97;5051796;28;46797;-76
2022/02/14 10:36:32;;;;;;;;;2.67;0.00;;;;;12.90;59.27;100240.41;5008415;28;45553;-75
2022/02/14 10:39:24;;;;;;;;;1.00;1.00;;;;;13.06;59.36;100244.69;5044980;28;45678;-75
2022/02/14 10:42:00;;;;;;;;;0.33;0.33;;;;;13.16;58.71;100249.91;5052314;28;45502;-75
2022/02/14 10:47:15;;;;;;;;;2.00;1.00;;;;;13.32;58.15;100243.59;5055850;28;45683;-74
2022/02/14 10:49:41;;;;;;;;;1.00;1.00;;;;;13.38;57.72;100251.50;5054709;28;45512;-75
2022/02/14 10:52:08;;;;;;;;;1.67;1.00;;;;;13.42;58.20;100258.50;5058448;28;45536;-75
2022/02/14 10:54:35;;;;;;;;;1.33;0.00;;;;;13.42;57.07;100234.63;5054595;28;46467;-75
2022/02/14 10:57:03;;;;;;;;;1.00;0.00;;;;;13.48;56.87;100249.66;5055394;28;45529;-75
2022/02/14 10:59:29;;;;;;;;;0.00;0.00;;;;;13.56;55.82;100255.72;5035866;28;45370;-74
2022/02/14 11:01:55;;;;;;;;;2.67;1.00;;;;;13.65;56.44;100255.63;5054730;27;45731;-75
2022/02/14 11:04:20;;;;;;;;;3.00;1.00;;;;;13.53;54.68;100235.44;5055213;28;47347;-76
2022/02/14 11:06:46;;;;;;;;;1.00;0.00;;;;;13.64;55.14;100248.59;5054684;27;45624;-76
2022/02/14 11:09:11;;;;;;;;;2.33;0.00;;;;;13.61;55.22;100244.19;5053606;28;54002;-75
2022/02/14 11:11:37;;;;;;;;;0.00;0.00;;;;;13.53;54.70;100242.47;5059841;28;52978;-76
2022/02/14 11:14:03;;;;;;;;;1.00;0.00;;;;;13.40;54.90;100227.63;5054029;28;45615;-75
2022/02/14 11:16:29;;;;;;;;;2.00;0.67;;;;;13.41;54.25;100243.50;5057384;28;45680;-76
2022/02/14 11:18:55;;;;;;;;;3.33;1.00;;;;;13.42;54.12;100231.13;5069332;27;59018;-76
2022/02/14 11:21:20;;;;;;;;;2.00;0.67;;;;;13.46;54.04;100236.38;5041160;28;45571;-76
2022/02/14 11:23:56;;;;;;;;;2.33;1.00;;;;;13.53;54.50;100237.19;5056053;28;55075;-78
2022/02/14 11:26:46;;;;;;;;;1.00;1.00;;;;;13.58;55.39;100219.44;5066544;28;45451;-78
2022/02/14 11:29:26;;;;;;;;;2.00;1.00;;;;;13.71;55.47;100209.59;5051956;28;45556;-76
2022/02/14 11:31:57;;;;;;;;;0.00;0.00;;;;;13.76;55.06;100215.72;5046557;28;46018;-76
2022/02/14 11:34:23;;;;;;;;;1.67;0.00;;;;;13.66;53.75;100212.28;5045507;28;47674;-75
2022/02/14 11:36:58;;;;;;;;;0.00;0.00;;;;;13.57;54.56;100215.91;5066474;28;56172;-75
2022/02/14 11:39:29;;;;;;;;;2.33;0.67;;;;;13.49;53.91;100215.13;5068015;28;45421;-76
2022/02/14 11:41:59;;;;;;;;;4.00;1.00;;;;;13.38;54.56;100202.91;5064428;28;45611;-75
2022/02/14 11:44:27;;;;;;;;;1.67;0.67;;;;;13.36;54.79;100202.88;5063311;28;46464;-75
2022/02/14 11:46:55;;;;;;;;;3.67;0.00;;;;;13.38;55.01;100210.84;5064527;28;45359;-76
2022/02/14 11:49:21;;;;;;;;;4.00;1.00;;;;;13.37;55.11;100194.06;5059597;28;45469;-75
2022/02/14 11:51:58;;;;;;;;;3.00;2.00;;;;;13.45;55.03;100197.50;5057648;28;45512;-74
2022/02/14 11:54:46;;;;;;;;;2.67;0.00;;;;;13.40;55.12;100199.31;5059137;28;47598;-75
2022/02/14 11:57:17;;;;;;;;;2.00;0.67;;;;;13.29;55.12;100204.72;5054254;28;45466;-75
2022/02/14 11:59:45;;;;;;;;;1.67;0.67;;;;;13.21;55.30;100210.97;5059743;28;45558;-74
2022/02/14 12:02:14;;;;;;;;;4.67;2.00;;;;;13.14;55.43;100203.97;5058034;28;45375;-73
2022/02/14 12:04:45;;;;;;;;;3.00;1.67;;;;;13.11;55.83;100207.53;5055962;28;45342;-74
2022/02/14 12:07:20;;;;;;;;;2.00;1.00;;;;;13.07;55.69;100208.47;5055124;28;45549;-72
2022/02/14 12:13:03;;;;;;;;;1.67;1.67;;;;;12.97;55.74;100189.09;5058170;28;45363;-73